Accueil
METAR-TAF:

METAR-TAF

Aéroports :

Aéroport international de Chongqing-Jiangbei

Chongqing, Chine

latitude: 29-31N, longitude: 106-29E, altitude: 351 m

Observation

Le bulletin a été fait il y a 48 minutes, à 15:00 UTC
Vent 6 kt de nord
Température 5°C
Humidité 93%
Pression 1026 hPa
Visibilité: 4000 m
brume

METAR: ZUCK 171500Z 01003MPS 4000 BR NSC 05/04 Q1026 NOSIG

Heure: 23:48 (15:48 UTC)

Prévision

Le bulletin a été fait il y a 6 heures et 45 minutes, à 09:03 UTC
Prévision valable du 17 à 12 UTC au 18 à 12 UTC
Vent 6 kt de nord/nord-est
Visibilité: 3500 m
Quelques nuages à une hauteur de 4000 ft
brume
Temporairement
du 17 à 23 UTC au 18 à 02 UTC
Visibilité: 1200 m
brume

TAF: ZUCK 170903Z 1712/1812 03003MPS 3500 BR FEW040 TX12/1808Z TN04/1722Z TEMPO 1723/1802 1200 BR

Observations et prévisions météorologiques de plus de 4000 aéroports (messages METAR et TAF).

Les stations disponibles sont représentées par des disques jaunes et rouges sur la carte.

Passer la souris dessus pour voir le nom de la station.

Cliquer dessus pour voir les observations et prévisions météorologiques.

Pour changer de carte: cliquez sur les boutons verts avec une croix noire pour zoomer, sur le bouton vert avec un tiret pour effectuer un zoom arrière, ou sur les flèches vertes pour les cartes adjacentes.


METAR-TAF: